Hunt Field
KLND : now visible

Airfield :











YOU CAN JOIN US ON...

 
LOGIN :

Register | Disclaimer

   EN    FR    IT 

 









Legend :    VFR   Marginal VFR   IFR   Intensive IFR   Very Intensive IFR
Visi :
Ceiling :
>= 8 km
>= 3000ft
5 to 8 km
1000 to 3000 ft
1500m to 5 km
500 to 1000 ft
800 to 1500m
200 to 500 ft
< 800m
< 200 ft
Symbols :   Thunderstorms  Fog  Heavy snow  Heavy precipitations  Wind > 20 kt






- Airport Elevation : 5586 ft


KLND - Hunt Field

CURRENT METAR :
  • 071453Z AUTO 09004KT 10SM CLR 13/07 A2996 RMK AO2 SLP102 T01280067 58017

EXPIRED METARs :
  • 071353Z AUTO 09004KT 10SM CLR 09/04 A2999 RMK AO2 SLP113 T00940044
  • 071253Z AUTO 22005KT 10SM CLR 09/01 A3001 RMK AO2 SLP115 T00940006

TAF KLND
Valid from the 07 at 12:00 until the 08 at 12:00 UTC


071121Z 0712/0812 VRB05KT P6SM SCT200
FM071700 20018G26KT P6SM BKN200
FM080500 28015G25KT P6SM BKN080 BKN150
FM081100 29010KT P6SM SCT080 BKN120
KZLC FIR / North America



MET'MAP, your aeronautical weather chart ! - Copyright ORBIFLY December 2007 - Disclaimer

ORBIFLY MET'MAP TEAM :

Programming & Development : Alexandra Zaïnal
Concept & original design : Baudouin d'Aumeries
Assistance for programming : Marc-Olivier Méhu
Technical & hardware support : Manuel Goepfert

Contact : metmap@orbifly.com




SOURCES & CREDITS :

   NOAA       Earth
Advisory